sensor_id;sensor_type;location;lat;lon;timestamp;temperature;humidity
42085;DHT22;27746;52.228;20.890;2023-08-12T00:01:36;16.50;87.00
42085;DHT22;27746;52.228;20.890;2023-08-12T00:04:03;16.50;86.90
42085;DHT22;27746;52.228;20.890;2023-08-12T00:06:30;16.40;87.00
42085;DHT22;27746;52.228;20.890;2023-08-12T00:08:57;16.40;87.80
42085;DHT22;27746;52.228;20.890;2023-08-12T00:11:23;16.40;87.70
42085;DHT22;27746;52.228;20.890;2023-08-12T00:13:50;16.30;88.10
42085;DHT22;27746;52.228;20.890;2023-08-12T00:16:18;16.30;87.60
42085;DHT22;27746;52.228;20.890;2023-08-12T00:18:45;16.20;87.80
42085;DHT22;27746;52.228;20.890;2023-08-12T00:21:13;16.20;87.70
42085;DHT22;27746;52.228;20.890;2023-08-12T00:23:40;16.20;88.00
42085;DHT22;27746;52.228;20.890;2023-08-12T00:26:08;16.10;88.10
42085;DHT22;27746;52.228;20.890;2023-08-12T00:28:35;16.10;88.30
42085;DHT22;27746;52.228;20.890;2023-08-12T00:31:02;16.10;88.60
42085;DHT22;27746;52.228;20.890;2023-08-12T00:33:31;16.00;88.40
42085;DHT22;27746;52.228;20.890;2023-08-12T00:35:57;16.00;88.50
42085;DHT22;27746;52.228;20.890;2023-08-12T00:38:24;16.00;88.60
42085;DHT22;27746;52.228;20.890;2023-08-12T00:40:51;16.00;88.70
42085;DHT22;27746;52.228;20.890;2023-08-12T00:43:18;16.00;88.70
42085;DHT22;27746;52.228;20.890;2023-08-12T00:45:45;16.00;88.90
42085;DHT22;27746;52.228;20.890;2023-08-12T00:48:12;16.00;88.70
42085;DHT22;27746;52.228;20.890;2023-08-12T00:50:41;15.90;89.00
42085;DHT22;27746;52.228;20.890;2023-08-12T00:53:09;15.90;89.20
42085;DHT22;27746;52.228;20.890;2023-08-12T00:55:37;15.90;89.10
42085;DHT22;27746;52.228;20.890;2023-08-12T00:58:04;15.80;89.30
42085;DHT22;27746;52.228;20.890;2023-08-12T01:00:31;15.80;89.60
42085;DHT22;27746;52.228;20.890;2023-08-12T01:03:00;15.80;89.90
42085;DHT22;27746;52.228;20.890;2023-08-12T01:05:27;15.80;90.00
42085;DHT22;27746;52.228;20.890;2023-08-12T01:07:55;15.70;90.00
42085;DHT22;27746;52.228;20.890;2023-08-12T01:10:23;15.70;90.00
42085;DHT22;27746;52.228;20.890;2023-08-12T01:12:54;15.70;89.90
42085;DHT22;27746;52.228;20.890;2023-08-12T01:15:24;15.70;89.90
42085;DHT22;27746;52.228;20.890;2023-08-12T01:17:54;15.70;90.00
42085;DHT22;27746;52.228;20.890;2023-08-12T01:20:21;15.70;90.10
42085;DHT22;27746;52.228;20.890;2023-08-12T01:22:55;15.60;90.00
42085;DHT22;27746;52.228;20.890;2023-08-12T01:25:24;15.60;90.20
42085;DHT22;27746;52.228;20.890;2023-08-12T01:27:51;15.60;90.20
42085;DHT22;27746;52.228;20.890;2023-08-12T01:30:18;15.50;90.20
42085;DHT22;27746;52.228;20.890;2023-08-12T01:32:53;15.50;90.30
42085;DHT22;27746;52.228;20.890;2023-08-12T01:35:23;15.50;90.30
42085;DHT22;27746;52.228;20.890;2023-08-12T01:37:57;15.50;90.40
42085;DHT22;27746;52.228;20.890;2023-08-12T01:40:26;15.50;90.60
42085;DHT22;27746;52.228;20.890;2023-08-12T01:42:54;15.50;90.70
42085;DHT22;27746;52.228;20.890;2023-08-12T01:45:21;15.40;90.70
42085;DHT22;27746;52.228;20.890;2023-08-12T01:47:48;15.40;90.70
42085;DHT22;27746;52.228;20.890;2023-08-12T01:50:16;15.30;90.80
42085;DHT22;27746;52.228;20.890;2023-08-12T01:52:44;15.30;90.80
42085;DHT22;27746;52.228;20.890;2023-08-12T01:55:11;15.30;90.90
42085;DHT22;27746;52.228;20.890;2023-08-12T01:57:39;15.30;91.00
42085;DHT22;27746;52.228;20.890;2023-08-12T02:00:07;15.20;90.90
42085;DHT22;27746;52.228;20.890;2023-08-12T02:02:34;15.20;91.10
42085;DHT22;27746;52.228;20.890;2023-08-12T02:05:01;15.10;91.10
42085;DHT22;27746;52.228;20.890;2023-08-12T02:07:28;15.10;91.10
42085;DHT22;27746;52.228;20.890;2023-08-12T02:09:55;15.10;91.20
42085;DHT22;27746;52.228;20.890;2023-08-12T02:12:22;15.10;91.20
42085;DHT22;27746;52.228;20.890;2023-08-12T02:14:50;15.10;91.30
42085;DHT22;27746;52.228;20.890;2023-08-12T02:17:17;15.00;91.40
42085;DHT22;27746;52.228;20.890;2023-08-12T02:19:44;15.00;91.40
42085;DHT22;27746;52.228;20.890;2023-08-12T02:22:11;15.00;91.40
42085;DHT22;27746;52.228;20.890;2023-08-12T02:24:38;14.90;91.60
42085;DHT22;27746;52.228;20.890;2023-08-12T02:27:06;14.90;91.60
42085;DHT22;27746;52.228;20.890;2023-08-12T02:29:33;14.90;91.70
42085;DHT22;27746;52.228;20.890;2023-08-12T02:32:01;14.90;91.70
42085;DHT22;27746;52.228;20.890;2023-08-12T02:34:28;14.90;91.90
42085;DHT22;27746;52.228;20.890;2023-08-12T02:36:54;14.90;91.90
42085;DHT22;27746;52.228;20.890;2023-08-12T02:39:21;14.80;92.00
42085;DHT22;27746;52.228;20.890;2023-08-12T02:41:48;14.80;92.10
42085;DHT22;27746;52.228;20.890;2023-08-12T02:44:15;14.80;92.20
42085;DHT22;27746;52.228;20.890;2023-08-12T02:46:42;14.80;92.20
42085;DHT22;27746;52.228;20.890;2023-08-12T02:49:10;14.80;92.30
42085;DHT22;27746;52.228;20.890;2023-08-12T02:51:37;14.80;92.30
42085;DHT22;27746;52.228;20.890;2023-08-12T02:54:04;14.70;92.20
42085;DHT22;27746;52.228;20.890;2023-08-12T02:56:31;14.70;92.30
42085;DHT22;27746;52.228;20.890;2023-08-12T02:58:58;14.70;92.40
42085;DHT22;27746;52.228;20.890;2023-08-12T03:01:25;14.70;92.50
42085;DHT22;27746;52.228;20.890;2023-08-12T03:03:53;14.70;92.50
42085;DHT22;27746;52.228;20.890;2023-08-12T03:06:21;14.60;92.50
42085;DHT22;27746;52.228;20.890;2023-08-12T03:08:48;14.60;92.50
42085;DHT22;27746;52.228;20.890;2023-08-12T03:11:15;14.50;92.50
42085;DHT22;27746;52.228;20.890;2023-08-12T03:13:43;14.60;92.60
42085;DHT22;27746;52.228;20.890;2023-08-12T03:16:11;14.50;92.70
42085;DHT22;27746;52.228;20.890;2023-08-12T03:18:39;14.50;92.70
42085;DHT22;27746;52.228;20.890;2023-08-12T03:21:06;14.50;92.80
42085;DHT22;27746;52.228;20.890;2023-08-12T03:23:35;14.50;92.80
42085;DHT22;27746;52.228;20.890;2023-08-12T03:26:02;14.50;92.90
42085;DHT22;27746;52.228;20.890;2023-08-12T03:28:29;14.50;92.90
42085;DHT22;27746;52.228;20.890;2023-08-12T03:30:56;14.50;92.90
42085;DHT22;27746;52.228;20.890;2023-08-12T03:33:23;14.50;92.90
42085;DHT22;27746;52.228;20.890;2023-08-12T03:35:50;14.50;93.00
42085;DHT22;27746;52.228;20.890;2023-08-12T03:38:17;14.50;93.10
42085;DHT22;27746;52.228;20.890;2023-08-12T03:40:45;14.50;93.10
42085;DHT22;27746;52.228;20.890;2023-08-12T03:43:12;14.50;93.10
42085;DHT22;27746;52.228;20.890;2023-08-12T03:45:42;14.50;93.00
42085;DHT22;27746;52.228;20.890;2023-08-12T03:48:09;14.50;92.90
42085;DHT22;27746;52.228;20.890;2023-08-12T03:50:37;14.50;92.40
42085;DHT22;27746;52.228;20.890;2023-08-12T03:53:04;14.40;92.40
42085;DHT22;27746;52.228;20.890;2023-08-12T03:55:31;14.40;92.80
42085;DHT22;27746;52.228;20.890;2023-08-12T03:58:00;14.50;92.30
42085;DHT22;27746;52.228;20.890;2023-08-12T04:00:27;14.50;92.30
42085;DHT22;27746;52.228;20.890;2023-08-12T04:02:54;14.60;92.30
42085;DHT22;27746;52.228;20.890;2023-08-12T04:05:21;14.60;92.30
42085;DHT22;27746;52.228;20.890;2023-08-12T04:07:48;14.70;92.10
42085;DHT22;27746;52.228;20.890;2023-08-12T04:10:15;14.80;92.30
42085;DHT22;27746;52.228;20.890;2023-08-12T04:12:42;14.80;92.40
42085;DHT22;27746;52.228;20.890;2023-08-12T04:15:11;15.00;92.50
42085;DHT22;27746;52.228;20.890;2023-08-12T04:17:38;15.00;92.40
42085;DHT22;27746;52.228;20.890;2023-08-12T04:20:07;15.10;92.40
42085;DHT22;27746;52.228;20.890;2023-08-12T04:22:34;15.10;92.30
42085;DHT22;27746;52.228;20.890;2023-08-12T04:25:02;15.20;92.70
42085;DHT22;27746;52.228;20.890;2023-08-12T04:27:28;15.30;92.80
42085;DHT22;27746;52.228;20.890;2023-08-12T04:29:55;15.40;92.80
42085;DHT22;27746;52.228;20.890;2023-08-12T04:32:24;15.40;92.70
42085;DHT22;27746;52.228;20.890;2023-08-12T04:34:50;15.50;92.80
42085;DHT22;27746;52.228;20.890;2023-08-12T04:37:17;15.60;92.90
42085;DHT22;27746;52.228;20.890;2023-08-12T04:39:44;15.60;92.70
42085;DHT22;27746;52.228;20.890;2023-08-12T04:42:13;15.70;92.70
42085;DHT22;27746;52.228;20.890;2023-08-12T04:44:39;15.80;92.60
42085;DHT22;27746;52.228;20.890;2023-08-12T04:47:07;15.90;92.60
42085;DHT22;27746;52.228;20.890;2023-08-12T04:49:37;16.00;92.70
42085;DHT22;27746;52.228;20.890;2023-08-12T04:52:04;16.00;92.90
42085;DHT22;27746;52.228;20.890;2023-08-12T04:54:32;16.10;92.80
42085;DHT22;27746;52.228;20.890;2023-08-12T04:56:59;16.20;92.40
42085;DHT22;27746;52.228;20.890;2023-08-12T04:59:25;16.30;91.40
42085;DHT22;27746;52.228;20.890;2023-08-12T05:01:52;16.30;91.10
42085;DHT22;27746;52.228;20.890;2023-08-12T05:04:20;16.40;90.70
42085;DHT22;27746;52.228;20.890;2023-08-12T05:06:48;16.50;90.10
42085;DHT22;27746;52.228;20.890;2023-08-12T05:09:16;16.60;90.10
42085;DHT22;27746;52.228;20.890;2023-08-12T05:11:43;16.80;90.00
42085;DHT22;27746;52.228;20.890;2023-08-12T05:14:10;16.90;88.40
42085;DHT22;27746;52.228;20.890;2023-08-12T05:16:37;16.90;88.30
42085;DHT22;27746;52.228;20.890;2023-08-12T05:19:04;17.00;87.90
42085;DHT22;27746;52.228;20.890;2023-08-12T05:21:30;17.20;88.30
42085;DHT22;27746;52.228;20.890;2023-08-12T05:23:59;17.30;86.90
42085;DHT22;27746;52.228;20.890;2023-08-12T05:26:26;17.40;86.30
42085;DHT22;27746;52.228;20.890;2023-08-12T05:28:52;17.50;86.50
42085;DHT22;27746;52.228;20.890;2023-08-12T05:31:19;17.70;86.70
42085;DHT22;27746;52.228;20.890;2023-08-12T05:33:46;17.80;86.50
42085;DHT22;27746;52.228;20.890;2023-08-12T05:36:13;17.90;86.20
42085;DHT22;27746;52.228;20.890;2023-08-12T05:38:40;18.00;85.60
42085;DHT22;27746;52.228;20.890;2023-08-12T05:41:08;18.10;84.70
42085;DHT22;27746;52.228;20.890;2023-08-12T05:43:35;18.20;84.60
42085;DHT22;27746;52.228;20.890;2023-08-12T05:46:02;18.30;85.30
42085;DHT22;27746;52.228;20.890;2023-08-12T05:48:29;18.40;85.40
42085;DHT22;27746;52.228;20.890;2023-08-12T05:50:55;18.60;85.10
42085;DHT22;27746;52.228;20.890;2023-08-12T05:53:22;18.60;84.20
42085;DHT22;27746;52.228;20.890;2023-08-12T05:55:49;18.70;84.00
42085;DHT22;27746;52.228;20.890;2023-08-12T05:58:17;18.80;84.10
42085;DHT22;27746;52.228;20.890;2023-08-12T06:00:45;18.90;84.40
42085;DHT22;27746;52.228;20.890;2023-08-12T06:03:12;19.10;84.30
42085;DHT22;27746;52.228;20.890;2023-08-12T06:05:40;19.20;84.30
42085;DHT22;27746;52.228;20.890;2023-08-12T06:08:07;19.30;84.40
42085;DHT22;27746;52.228;20.890;2023-08-12T06:10:34;19.40;84.80
42085;DHT22;27746;52.228;20.890;2023-08-12T06:13:01;19.50;83.80
42085;DHT22;27746;52.228;20.890;2023-08-12T06:15:29;19.60;83.50
42085;DHT22;27746;52.228;20.890;2023-08-12T06:17:56;19.70;83.80
42085;DHT22;27746;52.228;20.890;2023-08-12T06:20:24;19.80;83.50
42085;DHT22;27746;52.228;20.890;2023-08-12T06:22:51;19.80;83.00
42085;DHT22;27746;52.228;20.890;2023-08-12T06:25:18;19.90;83.00
42085;DHT22;27746;52.228;20.890;2023-08-12T06:27:45;20.00;83.40
42085;DHT22;27746;52.228;20.890;2023-08-12T06:30:13;20.10;84.00
42085;DHT22;27746;52.228;20.890;2023-08-12T06:32:41;20.20;83.00
42085;DHT22;27746;52.228;20.890;2023-08-12T06:35:08;20.30;83.20
42085;DHT22;27746;52.228;20.890;2023-08-12T06:37:35;20.30;82.60
42085;DHT22;27746;52.228;20.890;2023-08-12T06:40:03;20.40;82.40
42085;DHT22;27746;52.228;20.890;2023-08-12T06:42:30;20.50;82.30
42085;DHT22;27746;52.228;20.890;2023-08-12T06:44:59;20.50;82.30
42085;DHT22;27746;52.228;20.890;2023-08-12T06:47:26;20.60;81.50
42085;DHT22;27746;52.228;20.890;2023-08-12T06:49:56;20.70;82.20
42085;DHT22;27746;52.228;20.890;2023-08-12T06:52:23;20.80;80.80
42085;DHT22;27746;52.228;20.890;2023-08-12T06:54:50;20.80;81.30
42085;DHT22;27746;52.228;20.890;2023-08-12T06:57:16;20.90;80.20
42085;DHT22;27746;52.228;20.890;2023-08-12T06:59:43;20.90;79.10
42085;DHT22;27746;52.228;20.890;2023-08-12T07:02:10;21.00;78.30
42085;DHT22;27746;52.228;20.890;2023-08-12T07:04:37;21.10;78.10
42085;DHT22;27746;52.228;20.890;2023-08-12T07:07:05;21.10;77.90
42085;DHT22;27746;52.228;20.890;2023-08-12T07:09:32;21.20;76.60
42085;DHT22;27746;52.228;20.890;2023-08-12T07:11:59;21.30;75.50
42085;DHT22;27746;52.228;20.890;2023-08-12T07:14:27;21.30;73.80
42085;DHT22;27746;52.228;20.890;2023-08-12T07:16:54;21.30;73.60
42085;DHT22;27746;52.228;20.890;2023-08-12T07:19:21;21.40;73.80
42085;DHT22;27746;52.228;20.890;2023-08-12T07:21:48;21.50;74.70
42085;DHT22;27746;52.228;20.890;2023-08-12T07:24:17;21.60;73.40
42085;DHT22;27746;52.228;20.890;2023-08-12T07:26:44;21.70;73.40
42085;DHT22;27746;52.228;20.890;2023-08-12T07:29:11;21.70;72.80
42085;DHT22;27746;52.228;20.890;2023-08-12T07:31:38;21.70;71.50
42085;DHT22;27746;52.228;20.890;2023-08-12T07:34:05;21.70;71.00
42085;DHT22;27746;52.228;20.890;2023-08-12T07:36:32;21.70;71.80
42085;DHT22;27746;52.228;20.890;2023-08-12T07:38:59;21.70;72.10
42085;DHT22;27746;52.228;20.890;2023-08-12T07:41:27;21.80;72.30
42085;DHT22;27746;52.228;20.890;2023-08-12T07:43:54;21.90;71.50
42085;DHT22;27746;52.228;20.890;2023-08-12T07:46:21;22.00;71.40
42085;DHT22;27746;52.228;20.890;2023-08-12T07:48:48;22.10;71.00
42085;DHT22;27746;52.228;20.890;2023-08-12T07:51:15;22.10;71.00
42085;DHT22;27746;52.228;20.890;2023-08-12T07:53:41;22.20;70.20
42085;DHT22;27746;52.228;20.890;2023-08-12T07:56:08;22.30;69.30
42085;DHT22;27746;52.228;20.890;2023-08-12T07:58:37;22.40;69.50
42085;DHT22;27746;52.228;20.890;2023-08-12T08:01:04;22.40;70.00
42085;DHT22;27746;52.228;20.890;2023-08-12T08:03:31;22.50;69.70
42085;DHT22;27746;52.228;20.890;2023-08-12T08:05:58;22.70;69.70
42085;DHT22;27746;52.228;20.890;2023-08-12T08:08:25;22.80;69.90
42085;DHT22;27746;52.228;20.890;2023-08-12T08:10:52;22.90;69.40
42085;DHT22;27746;52.228;20.890;2023-08-12T08:13:19;23.00;69.80
42085;DHT22;27746;52.228;20.890;2023-08-12T08:15:47;23.20;69.20
42085;DHT22;27746;52.228;20.890;2023-08-12T08:18:14;23.30;67.80
42085;DHT22;27746;52.228;20.890;2023-08-12T08:20:42;23.40;67.10
42085;DHT22;27746;52.228;20.890;2023-08-12T08:23:09;23.50;66.40
42085;DHT22;27746;52.228;20.890;2023-08-12T08:25:35;23.50;66.30
42085;DHT22;27746;52.228;20.890;2023-08-12T08:28:03;23.60;65.50
42085;DHT22;27746;52.228;20.890;2023-08-12T08:30:29;23.60;65.90
42085;DHT22;27746;52.228;20.890;2023-08-12T08:32:58;23.60;65.50
42085;DHT22;27746;52.228;20.890;2023-08-12T08:35:24;23.60;64.40
42085;DHT22;27746;52.228;20.890;2023-08-12T08:37:51;23.60;64.50
42085;DHT22;27746;52.228;20.890;2023-08-12T08:40:18;23.70;64.50
42085;DHT22;27746;52.228;20.890;2023-08-12T08:42:47;23.70;65.70
42085;DHT22;27746;52.228;20.890;2023-08-12T08:45:17;23.80;64.60
42085;DHT22;27746;52.228;20.890;2023-08-12T08:47:45;23.80;64.20
42085;DHT22;27746;52.228;20.890;2023-08-12T08:50:14;23.80;63.50
42085;DHT22;27746;52.228;20.890;2023-08-12T08:52:42;23.90;64.00
42085;DHT22;27746;52.228;20.890;2023-08-12T08:55:10;23.90;64.40
42085;DHT22;27746;52.228;20.890;2023-08-12T08:57:38;24.00;64.60
42085;DHT22;27746;52.228;20.890;2023-08-12T09:00:06;24.20;65.60
42085;DHT22;27746;52.228;20.890;2023-08-12T09:02:35;24.30;65.00
42085;DHT22;27746;52.228;20.890;2023-08-12T09:05:04;24.50;65.10
42085;DHT22;27746;52.228;20.890;2023-08-12T09:07:34;24.50;63.70
42085;DHT22;27746;52.228;20.890;2023-08-12T09:10:02;24.60;64.00
42085;DHT22;27746;52.228;20.890;2023-08-12T09:12:30;24.70;63.20
42085;DHT22;27746;52.228;20.890;2023-08-12T09:14:58;24.70;62.90
42085;DHT22;27746;52.228;20.890;2023-08-12T09:17:24;24.70;63.70
42085;DHT22;27746;52.228;20.890;2023-08-12T09:19:51;24.80;62.90
42085;DHT22;27746;52.228;20.890;2023-08-12T09:22:18;24.80;62.70
42085;DHT22;27746;52.228;20.890;2023-08-12T09:24:49;24.80;62.90
42085;DHT22;27746;52.228;20.890;2023-08-12T09:27:17;24.80;62.70
42085;DHT22;27746;52.228;20.890;2023-08-12T09:29:44;24.90;62.90
42085;DHT22;27746;52.228;20.890;2023-08-12T09:32:12;24.90;63.00
42085;DHT22;27746;52.228;20.890;2023-08-12T09:34:46;25.00;63.60
42085;DHT22;27746;52.228;20.890;2023-08-12T09:37:13;25.10;64.10
42085;DHT22;27746;52.228;20.890;2023-08-12T09:39:40;25.30;63.60
42085;DHT22;27746;52.228;20.890;2023-08-12T09:42:09;25.40;64.50
42085;DHT22;27746;52.228;20.890;2023-08-12T09:44:36;25.60;63.80
42085;DHT22;27746;52.228;20.890;2023-08-12T09:47:04;25.80;63.10
42085;DHT22;27746;52.228;20.890;2023-08-12T09:49:31;25.90;63.50
42085;DHT22;27746;52.228;20.890;2023-08-12T09:51:58;26.10;63.60
42085;DHT22;27746;52.228;20.890;2023-08-12T09:54:26;26.20;62.00
42085;DHT22;27746;52.228;20.890;2023-08-12T09:56:57;26.20;61.10
42085;DHT22;27746;52.228;20.890;2023-08-12T09:59:29;26.20;59.80
42085;DHT22;27746;52.228;20.890;2023-08-12T10:01:57;26.10;60.10
42085;DHT22;27746;52.228;20.890;2023-08-12T10:04:35;26.10;60.90
42085;DHT22;27746;52.228;20.890;2023-08-12T10:07:02;26.10;61.10
42085;DHT22;27746;52.228;20.890;2023-08-12T10:09:30;26.20;61.90
42085;DHT22;27746;52.228;20.890;2023-08-12T10:11:57;26.30;62.10
42085;DHT22;27746;52.228;20.890;2023-08-12T10:14:27;26.50;61.60
42085;DHT22;27746;52.228;20.890;2023-08-12T10:16:55;26.50;60.00
42085;DHT22;27746;52.228;20.890;2023-08-12T10:19:23;26.60;59.60
42085;DHT22;27746;52.228;20.890;2023-08-12T10:21:54;26.60;59.90
42085;DHT22;27746;52.228;20.890;2023-08-12T10:24:23;26.70;60.00
42085;DHT22;27746;52.228;20.890;2023-08-12T10:26:51;26.80;59.40
42085;DHT22;27746;52.228;20.890;2023-08-12T10:29:19;26.70;58.80
42085;DHT22;27746;52.228;20.890;2023-08-12T10:31:48;26.80;59.80
42085;DHT22;27746;52.228;20.890;2023-08-12T10:34:19;26.80;60.50
42085;DHT22;27746;52.228;20.890;2023-08-12T10:36:46;26.90;59.10
42085;DHT22;27746;52.228;20.890;2023-08-12T10:39:14;27.00;60.20
42085;DHT22;27746;52.228;20.890;2023-08-12T10:41:50;27.10;60.70
42085;DHT22;27746;52.228;20.890;2023-08-12T10:44:20;27.30;61.10
42085;DHT22;27746;52.228;20.890;2023-08-12T10:46:52;27.40;60.50
42085;DHT22;27746;52.228;20.890;2023-08-12T10:49:19;27.60;60.70
42085;DHT22;27746;52.228;20.890;2023-08-12T10:51:48;27.70;60.10
42085;DHT22;27746;52.228;20.890;2023-08-12T10:54:21;27.80;60.00
42085;DHT22;27746;52.228;20.890;2023-08-12T10:57:09;27.90;59.60
42085;DHT22;27746;52.228;20.890;2023-08-12T10:59:52;28.00;58.80
42085;DHT22;27746;52.228;20.890;2023-08-12T11:02:22;28.10;58.80
42085;DHT22;27746;52.228;20.890;2023-08-12T11:04:51;28.20;58.80
42085;DHT22;27746;52.228;20.890;2023-08-12T11:07:20;28.30;58.90
42085;DHT22;27746;52.228;20.890;2023-08-12T11:09:51;28.30;57.80
42085;DHT22;27746;52.228;20.890;2023-08-12T11:12:28;28.40;57.10
42085;DHT22;27746;52.228;20.890;2023-08-12T11:14:57;28.40;57.60
42085;DHT22;27746;52.228;20.890;2023-08-12T11:17:31;28.50;57.80
42085;DHT22;27746;52.228;20.890;2023-08-12T11:19:59;28.50;56.80
42085;DHT22;27746;52.228;20.890;2023-08-12T11:22:26;28.60;57.70
42085;DHT22;27746;52.228;20.890;2023-08-12T11:24:53;28.50;57.30
42085;DHT22;27746;52.228;20.890;2023-08-12T11:27:21;28.60;58.10
42085;DHT22;27746;52.228;20.890;2023-08-12T11:29:49;28.60;58.10
42085;DHT22;27746;52.228;20.890;2023-08-12T11:32:16;28.80;58.30
42085;DHT22;27746;52.228;20.890;2023-08-12T11:34:45;28.80;58.00
42085;DHT22;27746;52.228;20.890;2023-08-12T11:37:12;28.90;57.80
42085;DHT22;27746;52.228;20.890;2023-08-12T11:39:39;28.90;57.70
42085;DHT22;27746;52.228;20.890;2023-08-12T11:42:06;28.90;57.60
42085;DHT22;27746;52.228;20.890;2023-08-12T11:44:33;28.80;57.10
42085;DHT22;27746;52.228;20.890;2023-08-12T11:47:00;28.80;57.50
42085;DHT22;27746;52.228;20.890;2023-08-12T11:49:26;28.80;57.60
42085;DHT22;27746;52.228;20.890;2023-08-12T11:51:55;28.90;57.70
42085;DHT22;27746;52.228;20.890;2023-08-12T11:54:22;29.00;57.30
42085;DHT22;27746;52.228;20.890;2023-08-12T11:56:49;29.10;57.50
42085;DHT22;27746;52.228;20.890;2023-08-12T11:59:16;29.20;55.70
42085;DHT22;27746;52.228;20.890;2023-08-12T12:01:46;29.20;56.50
42085;DHT22;27746;52.228;20.890;2023-08-12T12:04:15;29.30;55.80
42085;DHT22;27746;52.228;20.890;2023-08-12T12:06:45;29.40;55.80
42085;DHT22;27746;52.228;20.890;2023-08-12T12:09:14;29.40;56.40
42085;DHT22;27746;52.228;20.890;2023-08-12T12:11:44;29.50;56.70
42085;DHT22;27746;52.228;20.890;2023-08-12T12:14:11;29.60;56.80
42085;DHT22;27746;52.228;20.890;2023-08-12T12:16:40;29.60;56.90
42085;DHT22;27746;52.228;20.890;2023-08-12T12:19:12;29.80;56.80
42085;DHT22;27746;52.228;20.890;2023-08-12T12:21:40;29.80;57.00
42085;DHT22;27746;52.228;20.890;2023-08-12T12:24:08;29.90;57.00
42085;DHT22;27746;52.228;20.890;2023-08-12T12:26:36;30.00;56.80
42085;DHT22;27746;52.228;20.890;2023-08-12T12:29:04;30.00;55.50
42085;DHT22;27746;52.228;20.890;2023-08-12T12:31:33;29.90;55.00
42085;DHT22;27746;52.228;20.890;2023-08-12T12:34:00;29.90;55.60
42085;DHT22;27746;52.228;20.890;2023-08-12T12:36:27;29.90;55.70
42085;DHT22;27746;52.228;20.890;2023-08-12T12:38:54;30.00;56.40
42085;DHT22;27746;52.228;20.890;2023-08-12T12:41:21;30.00;55.60
42085;DHT22;27746;52.228;20.890;2023-08-12T12:43:49;30.00;55.70
42085;DHT22;27746;52.228;20.890;2023-08-12T12:46:16;30.10;55.60
42085;DHT22;27746;52.228;20.890;2023-08-12T12:48:43;30.20;56.10
42085;DHT22;27746;52.228;20.890;2023-08-12T12:51:10;30.30;55.90
42085;DHT22;27746;52.228;20.890;2023-08-12T12:58:32;30.30;55.20
42085;DHT22;27746;52.228;20.890;2023-08-12T13:01:01;30.50;55.20
42085;DHT22;27746;52.228;20.890;2023-08-12T13:03:29;30.50;55.30
42085;DHT22;27746;52.228;20.890;2023-08-12T13:05:56;30.40;54.90
42085;DHT22;27746;52.228;20.890;2023-08-12T13:08:23;30.40;54.60
42085;DHT22;27746;52.228;20.890;2023-08-12T13:10:50;30.30;54.50
42085;DHT22;27746;52.228;20.890;2023-08-12T13:13:18;30.20;54.50
42085;DHT22;27746;52.228;20.890;2023-08-12T13:15:46;30.20;55.10
42085;DHT22;27746;52.228;20.890;2023-08-12T13:18:15;30.30;55.40
42085;DHT22;27746;52.228;20.890;2023-08-12T13:20:41;30.30;55.60
42085;DHT22;27746;52.228;20.890;2023-08-12T13:23:08;30.40;55.10
42085;DHT22;27746;52.228;20.890;2023-08-12T13:25:35;30.40;55.00
42085;DHT22;27746;52.228;20.890;2023-08-12T13:28:03;30.30;54.80
42085;DHT22;27746;52.228;20.890;2023-08-12T13:30:30;30.30;55.00
42085;DHT22;27746;52.228;20.890;2023-08-12T13:32:57;30.30;55.60
42085;DHT22;27746;52.228;20.890;2023-08-12T13:35:25;30.40;55.50
42085;DHT22;27746;52.228;20.890;2023-08-12T13:37:52;30.40;55.40
42085;DHT22;27746;52.228;20.890;2023-08-12T13:40:19;30.40;55.30
42085;DHT22;27746;52.228;20.890;2023-08-12T13:42:46;30.50;55.30
42085;DHT22;27746;52.228;20.890;2023-08-12T18:40:23;30.50;55.70
42085;DHT22;27746;52.228;20.890;2023-08-12T18:42:49;24.20;67.20
42085;DHT22;27746;52.228;20.890;2023-08-12T18:45:18;24.00;67.40
42085;DHT22;27746;52.228;20.890;2023-08-12T18:47:45;23.90;67.40
42085;DHT22;27746;52.228;20.890;2023-08-12T18:50:12;23.80;67.40
42085;DHT22;27746;52.228;20.890;2023-08-12T18:52:39;23.80;67.50
42085;DHT22;27746;52.228;20.890;2023-08-12T18:55:06;23.80;67.60
42085;DHT22;27746;52.228;20.890;2023-08-12T18:57:35;23.70;67.80
42085;DHT22;27746;52.228;20.890;2023-08-12T19:00:02;23.70;68.10
42085;DHT22;27746;52.228;20.890;2023-08-12T19:02:32;23.70;68.20
42085;DHT22;27746;52.228;20.890;2023-08-12T19:04:59;23.60;68.60
42085;DHT22;27746;52.228;20.890;2023-08-12T19:07:27;23.60;68.40
42085;DHT22;27746;52.228;20.890;2023-08-12T19:09:54;23.50;68.60
42085;DHT22;27746;52.228;20.890;2023-08-12T19:12:21;23.50;68.80
42085;DHT22;27746;52.228;20.890;2023-08-12T19:14:48;23.50;69.00
42085;DHT22;27746;52.228;20.890;2023-08-12T19:17:15;23.40;69.00
42085;DHT22;27746;52.228;20.890;2023-08-12T19:19:43;23.40;69.10
42085;DHT22;27746;52.228;20.890;2023-08-12T19:22:10;23.40;69.10
42085;DHT22;27746;52.228;20.890;2023-08-12T19:24:36;23.30;69.20
42085;DHT22;27746;52.228;20.890;2023-08-12T19:27:03;23.30;69.40
42085;DHT22;27746;52.228;20.890;2023-08-12T19:29:31;23.20;69.70
42085;DHT22;27746;52.228;20.890;2023-08-12T19:31:58;23.20;69.70
42085;DHT22;27746;52.228;20.890;2023-08-12T19:34:25;23.10;69.90
42085;DHT22;27746;52.228;20.890;2023-08-12T19:36:53;23.10;70.00
42085;DHT22;27746;52.228;20.890;2023-08-12T19:39:20;23.10;70.30
42085;DHT22;27746;52.228;20.890;2023-08-12T19:41:47;23.00;70.50
42085;DHT22;27746;52.228;20.890;2023-08-12T19:44:14;23.00;70.80
42085;DHT22;27746;52.228;20.890;2023-08-12T19:46:41;22.90;70.90
42085;DHT22;27746;52.228;20.890;2023-08-12T19:49:08;22.80;71.20
42085;DHT22;27746;52.228;20.890;2023-08-12T19:51:35;22.80;71.40
42085;DHT22;27746;52.228;20.890;2023-08-12T19:54:04;22.70;71.60
42085;DHT22;27746;52.228;20.890;2023-08-12T19:56:31;22.70;72.00
42085;DHT22;27746;52.228;20.890;2023-08-12T19:58:57;22.60;71.80
42085;DHT22;27746;52.228;20.890;2023-08-12T20:01:24;22.60;72.10
42085;DHT22;27746;52.228;20.890;2023-08-12T20:03:51;22.50;72.20
42085;DHT22;27746;52.228;20.890;2023-08-12T20:06:18;22.50;72.30
42085;DHT22;27746;52.228;20.890;2023-08-12T20:08:45;22.40;72.40
42085;DHT22;27746;52.228;20.890;2023-08-12T20:11:13;22.40;72.50
42085;DHT22;27746;52.228;20.890;2023-08-12T20:13:40;22.30;72.80
42085;DHT22;27746;52.228;20.890;2023-08-12T20:16:07;22.30;72.80
42085;DHT22;27746;52.228;20.890;2023-08-12T20:18:34;22.30;73.10